sensor_id;sensor_type;location;lat;lon;timestamp;temperature;humidity
19385;DHT22;9828;54.122;17.974;2023-07-31T00:02:41;17.20;99.90
19385;DHT22;9828;54.122;17.974;2023-07-31T00:08:03;17.10;1.00
19385;DHT22;9828;54.122;17.974;2023-07-31T00:13:24;17.10;1.00
19385;DHT22;9828;54.122;17.974;2023-07-31T00:18:46;17.10;1.00
19385;DHT22;9828;54.122;17.974;2023-07-31T00:24:07;17.10;99.90
19385;DHT22;9828;54.122;17.974;2023-07-31T00:29:28;17.10;99.90
19385;DHT22;9828;54.122;17.974;2023-07-31T00:34:50;17.10;99.90
19385;DHT22;9828;54.122;17.974;2023-07-31T00:40:11;17.00;99.90
19385;DHT22;9828;54.122;17.974;2023-07-31T00:45:34;17.00;1.00
19385;DHT22;9828;54.122;17.974;2023-07-31T00:50:56;16.90;1.00
19385;DHT22;9828;54.122;17.974;2023-07-31T00:56:17;16.90;99.90
19385;DHT22;9828;54.122;17.974;2023-07-31T01:01:38;16.70;10.40
19385;DHT22;9828;54.122;17.974;2023-07-31T01:07:12;16.60;1.00
19385;DHT22;9828;54.122;17.974;2023-07-31T01:12:34;16.50;1.00
19385;DHT22;9828;54.122;17.974;2023-07-31T01:17:57;16.40;99.90
19385;DHT22;9828;54.122;17.974;2023-07-31T01:29:11;16.30;99.90
19385;DHT22;9828;54.122;17.974;2023-07-31T01:34:35;16.30;99.90
19385;DHT22;9828;54.122;17.974;2023-07-31T01:39:58;16.20;99.90
19385;DHT22;9828;54.122;17.974;2023-07-31T01:45:19;16.10;1.00
19385;DHT22;9828;54.122;17.974;2023-07-31T01:50:40;16.00;1.00
19385;DHT22;9828;54.122;17.974;2023-07-31T01:56:01;15.80;99.90
19385;DHT22;9828;54.122;17.974;2023-07-31T02:01:24;15.70;1.00
19385;DHT22;9828;54.122;17.974;2023-07-31T02:06:45;15.70;4.60
19385;DHT22;9828;54.122;17.974;2023-07-31T02:12:06;15.60;1.70
19385;DHT22;9828;54.122;17.974;2023-07-31T02:17:29;15.60;1.00
19385;DHT22;9828;54.122;17.974;2023-07-31T02:22:50;15.50;99.90
19385;DHT22;9828;54.122;17.974;2023-07-31T02:28:13;15.40;99.90
19385;DHT22;9828;54.122;17.974;2023-07-31T02:33:34;15.40;99.90
19385;DHT22;9828;54.122;17.974;2023-07-31T02:38:55;15.30;99.90
19385;DHT22;9828;54.122;17.974;2023-07-31T02:44:16;15.20;1.00
19385;DHT22;9828;54.122;17.974;2023-07-31T02:49:38;15.20;1.00
19385;DHT22;9828;54.122;17.974;2023-07-31T02:54:59;15.20;1.00
19385;DHT22;9828;54.122;17.974;2023-07-31T03:00:21;15.20;1.00
19385;DHT22;9828;54.122;17.974;2023-07-31T03:05:43;15.20;1.00
19385;DHT22;9828;54.122;17.974;2023-07-31T03:11:04;15.10;1.00
19385;DHT22;9828;54.122;17.974;2023-07-31T03:16:25;15.10;1.00
19385;DHT22;9828;54.122;17.974;2023-07-31T03:21:46;15.10;1.00
19385;DHT22;9828;54.122;17.974;2023-07-31T03:27:08;15.10;1.00
19385;DHT22;9828;54.122;17.974;2023-07-31T03:32:29;15.20;1.00
19385;DHT22;9828;54.122;17.974;2023-07-31T03:37:50;15.20;1.00
19385;DHT22;9828;54.122;17.974;2023-07-31T03:43:12;15.10;1.00
19385;DHT22;9828;54.122;17.974;2023-07-31T03:48:33;15.20;1.00
19385;DHT22;9828;54.122;17.974;2023-07-31T03:53:54;15.10;1.00
19385;DHT22;9828;54.122;17.974;2023-07-31T03:59:15;15.10;99.90
19385;DHT22;9828;54.122;17.974;2023-07-31T04:04:37;15.10;99.90
19385;DHT22;9828;54.122;17.974;2023-07-31T04:09:58;15.10;99.90
19385;DHT22;9828;54.122;17.974;2023-07-31T04:15:19;15.10;99.90
19385;DHT22;9828;54.122;17.974;2023-07-31T04:20:40;15.20;99.90
19385;DHT22;9828;54.122;17.974;2023-07-31T04:26:01;15.30;99.90
19385;DHT22;9828;54.122;17.974;2023-07-31T04:31:22;15.40;94.00
19385;DHT22;9828;54.122;17.974;2023-07-31T04:36:44;15.40;1.00
19385;DHT22;9828;54.122;17.974;2023-07-31T04:42:05;15.50;1.00
19385;DHT22;9828;54.122;17.974;2023-07-31T04:47:26;15.60;1.00
19385;DHT22;9828;54.122;17.974;2023-07-31T04:52:47;15.60;1.00
19385;DHT22;9828;54.122;17.974;2023-07-31T04:58:09;15.70;1.00
19385;DHT22;9828;54.122;17.974;2023-07-31T05:03:30;15.70;99.90
19385;DHT22;9828;54.122;17.974;2023-07-31T05:08:51;15.70;1.00
19385;DHT22;9828;54.122;17.974;2023-07-31T05:14:12;15.70;1.00
19385;DHT22;9828;54.122;17.974;2023-07-31T05:19:33;15.70;1.00
19385;DHT22;9828;54.122;17.974;2023-07-31T05:24:54;15.70;1.00
19385;DHT22;9828;54.122;17.974;2023-07-31T05:30:16;15.80;1.00
19385;DHT22;9828;54.122;17.974;2023-07-31T05:35:37;15.90;1.00
19385;DHT22;9828;54.122;17.974;2023-07-31T05:40:59;15.90;1.00
19385;DHT22;9828;54.122;17.974;2023-07-31T05:46:20;16.10;1.00
19385;DHT22;9828;54.122;17.974;2023-07-31T05:51:41;16.20;22.50
19385;DHT22;9828;54.122;17.974;2023-07-31T05:57:03;16.30;1.00
19385;DHT22;9828;54.122;17.974;2023-07-31T06:02:24;16.50;1.00
19385;DHT22;9828;54.122;17.974;2023-07-31T06:07:45;16.70;99.90
19385;DHT22;9828;54.122;17.974;2023-07-31T06:13:06;16.80;46.60
19385;DHT22;9828;54.122;17.974;2023-07-31T06:18:28;16.90;1.00
19385;DHT22;9828;54.122;17.974;2023-07-31T06:23:49;17.00;1.00
19385;DHT22;9828;54.122;17.974;2023-07-31T06:29:11;17.20;1.00
19385;DHT22;9828;54.122;17.974;2023-07-31T06:34:32;17.40;1.00
19385;DHT22;9828;54.122;17.974;2023-07-31T06:39:53;17.80;99.90
19385;DHT22;9828;54.122;17.974;2023-07-31T06:45:15;18.40;99.90
19385;DHT22;9828;54.122;17.974;2023-07-31T06:50:36;19.30;99.90
19385;DHT22;9828;54.122;17.974;2023-07-31T06:55:57;19.90;1.00
19385;DHT22;9828;54.122;17.974;2023-07-31T07:01:19;20.50;1.00
19385;DHT22;9828;54.122;17.974;2023-07-31T07:06:40;21.10;1.00
19385;DHT22;9828;54.122;17.974;2023-07-31T07:12:01;21.60;1.00
19385;DHT22;9828;54.122;17.974;2023-07-31T07:17:23;21.90;1.00
19385;DHT22;9828;54.122;17.974;2023-07-31T07:22:44;22.40;1.00
19385;DHT22;9828;54.122;17.974;2023-07-31T07:28:05;22.80;1.00
19385;DHT22;9828;54.122;17.974;2023-07-31T07:33:26;23.10;99.90
19385;DHT22;9828;54.122;17.974;2023-07-31T07:38:48;23.30;99.90
19385;DHT22;9828;54.122;17.974;2023-07-31T07:44:09;23.50;99.90
19385;DHT22;9828;54.122;17.974;2023-07-31T07:49:30;24.00;99.90
19385;DHT22;9828;54.122;17.974;2023-07-31T07:54:51;24.00;99.90
19385;DHT22;9828;54.122;17.974;2023-07-31T08:00:13;24.30;99.90
19385;DHT22;9828;54.122;17.974;2023-07-31T08:05:35;24.80;99.90
19385;DHT22;9828;54.122;17.974;2023-07-31T08:10:56;25.20;99.90
19385;DHT22;9828;54.122;17.974;2023-07-31T08:16:18;25.20;99.90
19385;DHT22;9828;54.122;17.974;2023-07-31T08:21:39;24.90;99.90
19385;DHT22;9828;54.122;17.974;2023-07-31T08:27:01;24.10;99.90
19385;DHT22;9828;54.122;17.974;2023-07-31T08:32:22;23.40;99.90
19385;DHT22;9828;54.122;17.974;2023-07-31T08:37:43;23.10;99.90
19385;DHT22;9828;54.122;17.974;2023-07-31T08:43:04;23.60;99.90
19385;DHT22;9828;54.122;17.974;2023-07-31T08:48:26;24.40;99.90
19385;DHT22;9828;54.122;17.974;2023-07-31T08:53:48;24.20;99.90
19385;DHT22;9828;54.122;17.974;2023-07-31T08:59:09;24.30;99.90
19385;DHT22;9828;54.122;17.974;2023-07-31T09:04:32;24.40;99.90
19385;DHT22;9828;54.122;17.974;2023-07-31T09:09:54;23.90;99.90
19385;DHT22;9828;54.122;17.974;2023-07-31T09:15:15;23.90;99.90
19385;DHT22;9828;54.122;17.974;2023-07-31T09:20:40;23.50;99.90
19385;DHT22;9828;54.122;17.974;2023-07-31T09:26:01;23.60;99.90
19385;DHT22;9828;54.122;17.974;2023-07-31T09:31:42;25.20;99.90
19385;DHT22;9828;54.122;17.974;2023-07-31T09:37:04;25.70;99.90
19385;DHT22;9828;54.122;17.974;2023-07-31T09:42:26;26.60;99.90
19385;DHT22;9828;54.122;17.974;2023-07-31T09:47:49;26.10;99.90
19385;DHT22;9828;54.122;17.974;2023-07-31T09:53:10;25.30;99.90
19385;DHT22;9828;54.122;17.974;2023-07-31T09:58:34;24.50;99.90
19385;DHT22;9828;54.122;17.974;2023-07-31T10:03:56;24.30;99.90
19385;DHT22;9828;54.122;17.974;2023-07-31T10:09:18;24.70;99.90
19385;DHT22;9828;54.122;17.974;2023-07-31T10:14:41;24.40;99.90
19385;DHT22;9828;54.122;17.974;2023-07-31T10:20:02;24.20;99.90
19385;DHT22;9828;54.122;17.974;2023-07-31T10:25:29;23.90;99.90
19385;DHT22;9828;54.122;17.974;2023-07-31T10:30:50;23.90;99.90
19385;DHT22;9828;54.122;17.974;2023-07-31T10:36:19;24.30;99.90
19385;DHT22;9828;54.122;17.974;2023-07-31T10:41:41;23.90;99.90
19385;DHT22;9828;54.122;17.974;2023-07-31T10:47:02;23.70;99.90
19385;DHT22;9828;54.122;17.974;2023-07-31T10:52:34;23.60;99.90
19385;DHT22;9828;54.122;17.974;2023-07-31T10:58:13;23.30;99.90
19385;DHT22;9828;54.122;17.974;2023-07-31T11:03:48;22.90;99.90
19385;DHT22;9828;54.122;17.974;2023-07-31T11:09:13;22.60;99.90
19385;DHT22;9828;54.122;17.974;2023-07-31T11:14:34;22.40;99.90
19385;DHT22;9828;54.122;17.974;2023-07-31T11:19:56;22.30;99.90
19385;DHT22;9828;54.122;17.974;2023-07-31T11:25:18;22.20;99.90
19385;DHT22;9828;54.122;17.974;2023-07-31T11:30:40;22.00;99.90
19385;DHT22;9828;54.122;17.974;2023-07-31T11:36:02;22.10;99.90
19385;DHT22;9828;54.122;17.974;2023-07-31T11:41:23;22.10;99.90
19385;DHT22;9828;54.122;17.974;2023-07-31T11:46:45;22.20;99.90
19385;DHT22;9828;54.122;17.974;2023-07-31T11:52:06;22.00;99.90
19385;DHT22;9828;54.122;17.974;2023-07-31T11:57:28;22.00;99.90
19385;DHT22;9828;54.122;17.974;2023-07-31T12:02:50;21.90;99.90
19385;DHT22;9828;54.122;17.974;2023-07-31T12:08:12;21.90;99.90
19385;DHT22;9828;54.122;17.974;2023-07-31T12:13:33;21.60;99.90
19385;DHT22;9828;54.122;17.974;2023-07-31T12:18:54;21.60;99.90
19385;DHT22;9828;54.122;17.974;2023-07-31T12:24:18;21.10;99.90
19385;DHT22;9828;54.122;17.974;2023-07-31T12:29:42;20.90;1.00
19385;DHT22;9828;54.122;17.974;2023-07-31T12:35:06;20.40;1.00
19385;DHT22;9828;54.122;17.974;2023-07-31T12:40:27;20.40;1.00
19385;DHT22;9828;54.122;17.974;2023-07-31T12:45:54;20.70;1.00
19385;DHT22;9828;54.122;17.974;2023-07-31T12:51:16;21.20;1.00
19385;DHT22;9828;54.122;17.974;2023-07-31T12:56:37;21.30;1.00
19385;DHT22;9828;54.122;17.974;2023-07-31T13:01:59;21.10;1.00
19385;DHT22;9828;54.122;17.974;2023-07-31T13:07:21;21.00;1.00
19385;DHT22;9828;54.122;17.974;2023-07-31T13:12:42;21.30;1.00
19385;DHT22;9828;54.122;17.974;2023-07-31T13:18:04;21.40;1.00
19385;DHT22;9828;54.122;17.974;2023-07-31T13:23:25;21.40;1.00
19385;DHT22;9828;54.122;17.974;2023-07-31T13:28:46;21.90;1.00
19385;DHT22;9828;54.122;17.974;2023-07-31T13:34:08;22.50;1.00
19385;DHT22;9828;54.122;17.974;2023-07-31T13:39:29;22.80;1.00
19385;DHT22;9828;54.122;17.974;2023-07-31T13:44:50;22.50;1.00
19385;DHT22;9828;54.122;17.974;2023-07-31T13:50:11;22.20;1.00
19385;DHT22;9828;54.122;17.974;2023-07-31T13:55:33;21.80;1.00
19385;DHT22;9828;54.122;17.974;2023-07-31T14:00:54;21.60;1.00
19385;DHT22;9828;54.122;17.974;2023-07-31T14:06:15;22.10;1.00
19385;DHT22;9828;54.122;17.974;2023-07-31T14:11:37;22.30;1.00
19385;DHT22;9828;54.122;17.974;2023-07-31T14:16:59;22.10;1.00
19385;DHT22;9828;54.122;17.974;2023-07-31T14:22:30;22.00;1.00
19385;DHT22;9828;54.122;17.974;2023-07-31T14:27:51;21.80;1.00
19385;DHT22;9828;54.122;17.974;2023-07-31T14:33:12;21.50;1.00
19385;DHT22;9828;54.122;17.974;2023-07-31T14:38:33;21.30;1.00
19385;DHT22;9828;54.122;17.974;2023-07-31T14:43:54;21.50;1.00
19385;DHT22;9828;54.122;17.974;2023-07-31T14:49:15;21.50;1.00
19385;DHT22;9828;54.122;17.974;2023-07-31T14:54:36;21.30;1.00
19385;DHT22;9828;54.122;17.974;2023-07-31T14:59:57;21.40;1.00
19385;DHT22;9828;54.122;17.974;2023-07-31T15:05:19;21.30;1.00
19385;DHT22;9828;54.122;17.974;2023-07-31T15:10:41;21.60;1.00
19385;DHT22;9828;54.122;17.974;2023-07-31T15:16:02;21.50;1.00
19385;DHT22;9828;54.122;17.974;2023-07-31T15:21:23;21.50;1.00
19385;DHT22;9828;54.122;17.974;2023-07-31T15:26:44;21.30;1.00
19385;DHT22;9828;54.122;17.974;2023-07-31T15:32:06;21.30;1.00
19385;DHT22;9828;54.122;17.974;2023-07-31T15:37:27;21.10;1.00
19385;DHT22;9828;54.122;17.974;2023-07-31T15:42:48;21.30;1.00
19385;DHT22;9828;54.122;17.974;2023-07-31T15:48:10;21.30;1.00
19385;DHT22;9828;54.122;17.974;2023-07-31T15:53:31;21.20;1.00
19385;DHT22;9828;54.122;17.974;2023-07-31T15:58:52;21.00;1.00
19385;DHT22;9828;54.122;17.974;2023-07-31T16:04:17;20.90;1.00
19385;DHT22;9828;54.122;17.974;2023-07-31T16:09:38;20.90;1.00
19385;DHT22;9828;54.122;17.974;2023-07-31T16:14:59;20.80;1.00
19385;DHT22;9828;54.122;17.974;2023-07-31T16:20:20;20.70;1.00
19385;DHT22;9828;54.122;17.974;2023-07-31T16:25:41;20.50;1.00
19385;DHT22;9828;54.122;17.974;2023-07-31T16:31:03;20.40;1.00
19385;DHT22;9828;54.122;17.974;2023-07-31T16:36:24;20.40;1.00
19385;DHT22;9828;54.122;17.974;2023-07-31T16:41:45;20.20;1.00
19385;DHT22;9828;54.122;17.974;2023-07-31T16:47:06;20.20;99.90
19385;DHT22;9828;54.122;17.974;2023-07-31T16:52:28;20.10;99.90
19385;DHT22;9828;54.122;17.974;2023-07-31T16:57:49;19.90;1.00
19385;DHT22;9828;54.122;17.974;2023-07-31T17:03:10;19.70;1.00
19385;DHT22;9828;54.122;17.974;2023-07-31T17:08:31;19.60;14.80
19385;DHT22;9828;54.122;17.974;2023-07-31T17:13:52;19.50;99.50
19385;DHT22;9828;54.122;17.974;2023-07-31T17:19:13;19.40;1.00
19385;DHT22;9828;54.122;17.974;2023-07-31T17:24:36;19.30;99.90
19385;DHT22;9828;54.122;17.974;2023-07-31T17:29:57;19.20;1.00
19385;DHT22;9828;54.122;17.974;2023-07-31T17:35:18;19.10;30.00
19385;DHT22;9828;54.122;17.974;2023-07-31T17:40:39;19.10;1.00
19385;DHT22;9828;54.122;17.974;2023-07-31T17:46:02;19.00;99.90
19385;DHT22;9828;54.122;17.974;2023-07-31T17:51:23;18.90;99.90
19385;DHT22;9828;54.122;17.974;2023-07-31T17:56:44;18.90;1.00
19385;DHT22;9828;54.122;17.974;2023-07-31T18:02:05;18.90;1.00
19385;DHT22;9828;54.122;17.974;2023-07-31T18:07:26;18.80;1.00
19385;DHT22;9828;54.122;17.974;2023-07-31T18:12:47;18.80;1.00
19385;DHT22;9828;54.122;17.974;2023-07-31T18:18:09;18.80;1.00
19385;DHT22;9828;54.122;17.974;2023-07-31T18:23:30;18.80;99.90
19385;DHT22;9828;54.122;17.974;2023-07-31T18:28:51;18.80;18.00
19385;DHT22;9828;54.122;17.974;2023-07-31T18:34:12;18.80;99.90
19385;DHT22;9828;54.122;17.974;2023-07-31T18:39:34;18.80;99.90
19385;DHT22;9828;54.122;17.974;2023-07-31T18:44:55;18.80;37.60
19385;DHT22;9828;54.122;17.974;2023-07-31T18:50:16;18.70;99.90
19385;DHT22;9828;54.122;17.974;2023-07-31T18:55:41;18.70;1.00
19385;DHT22;9828;54.122;17.974;2023-07-31T19:01:03;18.70;99.90
19385;DHT22;9828;54.122;17.974;2023-07-31T19:06:24;18.60;1.00
19385;DHT22;9828;54.122;17.974;2023-07-31T19:11:46;18.60;1.00
19385;DHT22;9828;54.122;17.974;2023-07-31T19:17:07;18.60;1.00
19385;DHT22;9828;54.122;17.974;2023-07-31T19:22:28;18.60;20.10
19385;DHT22;9828;54.122;17.974;2023-07-31T19:27:49;18.60;12.90
19385;DHT22;9828;54.122;17.974;2023-07-31T19:33:11;18.60;1.00
19385;DHT22;9828;54.122;17.974;2023-07-31T19:38:34;18.60;99.90
19385;DHT22;9828;54.122;17.974;2023-07-31T19:43:56;18.60;1.00
19385;DHT22;9828;54.122;17.974;2023-07-31T19:49:17;18.60;1.00
19385;DHT22;9828;54.122;17.974;2023-07-31T19:54:39;18.50;1.00
19385;DHT22;9828;54.122;17.974;2023-07-31T20:00:00;18.50;1.00
19385;DHT22;9828;54.122;17.974;2023-07-31T20:05:29;18.60;1.00
19385;DHT22;9828;54.122;17.974;2023-07-31T20:10:51;18.60;1.00
19385;DHT22;9828;54.122;17.974;2023-07-31T20:16:12;18.50;1.00
19385;DHT22;9828;54.122;17.974;2023-07-31T20:21:33;18.40;1.00
19385;DHT22;9828;54.122;17.974;2023-07-31T20:26:54;18.50;1.00
19385;DHT22;9828;54.122;17.974;2023-07-31T20:32:16;18.30;1.00
19385;DHT22;9828;54.122;17.974;2023-07-31T20:37:37;18.20;1.00
19385;DHT22;9828;54.122;17.974;2023-07-31T20:42:59;18.10;99.90
19385;DHT22;9828;54.122;17.974;2023-07-31T20:48:20;18.10;99.90
19385;DHT22;9828;54.122;17.974;2023-07-31T20:53:41;17.90;99.90
19385;DHT22;9828;54.122;17.974;2023-07-31T20:59:02;17.90;99.90
19385;DHT22;9828;54.122;17.974;2023-07-31T21:04:24;17.90;1.00
19385;DHT22;9828;54.122;17.974;2023-07-31T21:09:45;17.90;99.90
19385;DHT22;9828;54.122;17.974;2023-07-31T21:15:08;17.80;99.90
19385;DHT22;9828;54.122;17.974;2023-07-31T21:20:30;17.80;1.00
19385;DHT22;9828;54.122;17.974;2023-07-31T21:25:52;17.70;1.00
19385;DHT22;9828;54.122;17.974;2023-07-31T21:31:14;17.80;1.00
19385;DHT22;9828;54.122;17.974;2023-07-31T21:36:35;17.80;1.00
19385;DHT22;9828;54.122;17.974;2023-07-31T21:41:56;17.70;1.00
19385;DHT22;9828;54.122;17.974;2023-07-31T21:47:17;17.80;99.90
19385;DHT22;9828;54.122;17.974;2023-07-31T21:52:38;17.90;1.00
19385;DHT22;9828;54.122;17.974;2023-07-31T21:58:00;17.80;99.90
19385;DHT22;9828;54.122;17.974;2023-07-31T22:03:21;17.80;1.00
19385;DHT22;9828;54.122;17.974;2023-07-31T22:08:42;17.80;1.00
19385;DHT22;9828;54.122;17.974;2023-07-31T22:14:04;17.80;1.00
19385;DHT22;9828;54.122;17.974;2023-07-31T22:19:25;17.70;1.00
19385;DHT22;9828;54.122;17.974;2023-07-31T22:24:46;17.70;1.00
19385;DHT22;9828;54.122;17.974;2023-07-31T22:30:09;17.60;1.00
19385;DHT22;9828;54.122;17.974;2023-07-31T22:35:31;17.60;1.00
19385;DHT22;9828;54.122;17.974;2023-07-31T22:40:52;17.60;1.00
19385;DHT22;9828;54.122;17.974;2023-07-31T22:46:14;17.60;1.00
19385;DHT22;9828;54.122;17.974;2023-07-31T22:51:35;17.60;99.90
19385;DHT22;9828;54.122;17.974;2023-07-31T22:56:56;17.60;99.90
19385;DHT22;9828;54.122;17.974;2023-07-31T23:02:18;17.50;99.90
19385;DHT22;9828;54.122;17.974;2023-07-31T23:07:39;17.50;99.90
19385;DHT22;9828;54.122;17.974;2023-07-31T23:13:00;17.50;99.90
19385;DHT22;9828;54.122;17.974;2023-07-31T23:18:22;17.50;99.90
19385;DHT22;9828;54.122;17.974;2023-07-31T23:23:43;17.50;99.90
19385;DHT22;9828;54.122;17.974;2023-07-31T23:29:04;17.50;99.90
19385;DHT22;9828;54.122;17.974;2023-07-31T23:34:25;17.60;1.00
19385;DHT22;9828;54.122;17.974;2023-07-31T23:39:46;17.50;1.00
19385;DHT22;9828;54.122;17.974;2023-07-31T23:45:08;17.60;1.00
19385;DHT22;9828;54.122;17.974;2023-07-31T23:50:30;17.60;1.00
19385;DHT22;9828;54.122;17.974;2023-07-31T23:55:52;17.60;1.00
